Terminal Aerodrome Forecast
Issued by NWS Charleston, WV

Current Version | Previous Version | Graphics & Text | Print | Product List | Glossary On
Versions: 1 2 3 4 5 6 7 8 9 10 11 12 13 14 15 16 17 18 19 20 21 22 23 24 25 26 27
000
FTUS41 KRLX 261700
TAFEKN
TAF
KEKN 261739Z 2618/2718 00000KT 1/4SM SN FG VV006
     FM262100 VRB03KT 1 1/2SM -SN OVC009
     FM262300 00000KT 2SM -SN OVC010
     FM270300 00000KT 5SM BR SCT001 OVC015
     FM271500 29004KT 3SM -SHSN BR OVC015=

USA.gov is the U.S. government's official web portal to all federal, state and local government web resources and services.